createdAt,value
2018-07-09T00:00:49.880Z,22.89
2018-07-09T00:03:15.871Z,22.76
2018-07-09T00:05:41.819Z,22.98
2018-07-09T00:08:07.765Z,22.87
2018-07-09T00:10:33.730Z,22.62
2018-07-09T00:12:59.696Z,22.87
2018-07-09T00:15:25.664Z,22.71
2018-07-09T00:17:51.624Z,22.89
2018-07-09T00:20:17.590Z,22.94
2018-07-09T00:22:43.561Z,23.05
2018-07-09T00:25:09.604Z,23.29
2018-07-09T00:27:35.576Z,23.00
2018-07-09T00:30:01.516Z,23.07
2018-07-09T00:32:27.462Z,23.02
2018-07-09T00:34:53.391Z,22.93
2018-07-09T00:37:19.332Z,22.73
2018-07-09T00:39:45.298Z,22.71
2018-07-09T00:42:11.261Z,22.73
2018-07-09T00:44:37.215Z,22.82
2018-07-09T00:47:03.167Z,22.99
2018-07-09T00:49:29.120Z,23.00
2018-07-09T00:51:55.076Z,22.79
2018-07-09T00:54:21.032Z,22.87
2018-07-09T00:56:47.010Z,22.70
2018-07-09T00:59:12.980Z,22.47
2018-07-09T01:01:38.950Z,22.40
2018-07-09T01:04:04.929Z,22.39
2018-07-09T01:06:30.890Z,22.23
2018-07-09T01:08:56.866Z,22.21
2018-07-09T01:11:22.819Z,22.32
2018-07-09T01:13:48.799Z,22.39
2018-07-09T01:16:14.740Z,22.27
2018-07-09T01:18:40.696Z,22.28
2018-07-09T01:21:06.656Z,22.37
2018-07-09T01:23:32.613Z,22.30
2018-07-09T01:25:58.757Z,22.20
2018-07-09T01:28:24.694Z,21.97
2018-07-09T01:30:50.638Z,22.19
2018-07-09T01:33:16.624Z,22.03
2018-07-09T01:35:42.599Z,21.99
2018-07-09T01:38:08.572Z,21.90
2018-07-09T01:40:34.522Z,22.00
2018-07-09T01:43:00.492Z,22.10
2018-07-09T01:45:26.434Z,22.06
2018-07-09T01:47:52.384Z,22.19
2018-07-09T01:50:18.379Z,22.19
2018-07-09T01:52:44.343Z,21.98
2018-07-09T01:55:10.291Z,21.79
2018-07-09T01:57:36.240Z,21.92
2018-07-09T02:00:02.180Z,21.52
2018-07-09T02:02:28.141Z,21.58
2018-07-09T02:04:54.151Z,21.72
2018-07-09T02:07:20.155Z,21.86
2018-07-09T02:09:46.123Z,21.68
2018-07-09T02:12:12.068Z,21.78
2018-07-09T02:14:38.030Z,21.73
2018-07-09T02:17:03.994Z,21.64
2018-07-09T02:19:30.541Z,21.72
2018-07-09T02:21:56.497Z,22.05
2018-07-09T02:24:22.466Z,22.28
2018-07-09T02:26:48.535Z,22.25
2018-07-09T02:29:14.476Z,22.01
2018-07-09T02:31:40.426Z,21.76
2018-07-09T02:34:06.401Z,21.69
2018-07-09T02:36:32.360Z,21.69
2018-07-09T02:38:58.305Z,21.82
2018-07-09T02:41:24.261Z,21.83
2018-07-09T02:43:50.240Z,21.68
2018-07-09T02:46:16.204Z,22.07
2018-07-09T02:48:42.132Z,22.43
2018-07-09T02:51:08.067Z,22.26
2018-07-09T02:53:34.004Z,22.39
2018-07-09T02:55:59.968Z,22.10
2018-07-09T02:58:25.923Z,21.94
2018-07-09T03:00:52.000Z,21.81
2018-07-09T03:03:17.891Z,21.65
2018-07-09T03:05:43.861Z,21.67
2018-07-09T03:08:09.817Z,22.00
2018-07-09T03:10:35.797Z,22.02
2018-07-09T03:13:01.761Z,21.94
2018-07-09T03:15:27.763Z,22.03
2018-07-09T03:17:53.734Z,22.04
2018-07-09T03:20:19.773Z,22.13
2018-07-09T03:22:45.740Z,22.09
2018-07-09T03:25:11.785Z,22.06
2018-07-09T03:27:37.763Z,22.02
2018-07-09T03:30:03.689Z,21.90
2018-07-09T03:32:29.688Z,22.03
2018-07-09T03:34:55.657Z,21.76
2018-07-09T03:37:21.654Z,21.51
2018-07-09T03:39:47.616Z,21.48
2018-07-09T03:42:13.580Z,21.51
2018-07-09T03:44:39.543Z,21.53
2018-07-09T03:47:05.568Z,21.85
2018-07-09T03:49:31.531Z,22.04
2018-07-09T03:51:57.481Z,22.11
2018-07-09T03:54:23.433Z,22.23
2018-07-09T03:56:49.413Z,21.98
2018-07-09T03:59:15.409Z,21.84
2018-07-09T04:01:41.400Z,21.71
2018-07-09T04:04:07.351Z,21.74
2018-07-09T04:06:33.373Z,21.88
2018-07-09T04:08:59.332Z,22.01
2018-07-09T04:11:25.293Z,22.16
2018-07-09T04:13:51.256Z,22.29
2018-07-09T04:16:17.240Z,22.20
2018-07-09T04:18:43.199Z,21.85
2018-07-09T04:21:09.153Z,21.73
2018-07-09T04:23:35.116Z,21.91
2018-07-09T04:26:01.098Z,21.94
2018-07-09T04:28:27.044Z,21.97
2018-07-09T04:30:53.005Z,22.23
2018-07-09T04:33:18.961Z,21.75
2018-07-09T04:35:44.919Z,21.86
2018-07-09T04:38:10.858Z,22.14
2018-07-09T04:40:36.790Z,22.15
2018-07-09T04:43:03.416Z,22.06
2018-07-09T04:45:29.372Z,22.01
2018-07-09T04:47:55.357Z,22.00
2018-07-09T04:50:21.305Z,21.83
2018-07-09T04:52:47.278Z,21.72
2018-07-09T04:55:13.239Z,21.44
2018-07-09T04:57:39.200Z,21.91
2018-07-09T05:00:05.148Z,22.01
2018-07-09T05:02:31.103Z,22.10
2018-07-09T05:04:57.106Z,22.56
2018-07-09T05:07:23.079Z,22.72
2018-07-09T05:09:49.006Z,22.98
2018-07-09T05:12:14.962Z,22.97
2018-07-09T05:14:40.960Z,23.07
2018-07-09T05:17:06.982Z,22.93
2018-07-09T05:19:32.926Z,23.29
2018-07-09T05:21:58.900Z,23.69
2018-07-09T05:24:24.876Z,23.97
2018-07-09T05:26:50.844Z,23.95
2018-07-09T05:29:16.781Z,24.04
2018-07-09T05:31:42.792Z,23.81
2018-07-09T05:34:08.781Z,24.19
2018-07-09T05:36:34.760Z,24.21
2018-07-09T05:39:00.724Z,24.34
2018-07-09T05:41:26.667Z,24.55
2018-07-09T05:43:52.727Z,24.62
2018-07-09T05:46:18.711Z,24.52
2018-07-09T05:48:44.669Z,24.61
2018-07-09T05:51:11.747Z,24.69
2018-07-09T05:53:37.764Z,24.66
2018-07-09T05:56:03.746Z,24.90
2018-07-09T05:58:29.743Z,25.17
2018-07-09T06:00:55.720Z,25.33
2018-07-09T06:03:21.726Z,25.35
2018-07-09T06:05:47.661Z,25.32
2018-07-09T06:08:13.652Z,25.26
2018-07-09T06:10:39.804Z,25.12
2018-07-09T06:13:05.804Z,25.37
2018-07-09T06:15:31.787Z,25.52
2018-07-09T06:17:57.732Z,25.87
2018-07-09T06:20:23.752Z,25.53
2018-07-09T06:22:49.961Z,25.40
2018-07-09T06:25:15.928Z,25.13
2018-07-09T06:27:41.966Z,25.12
2018-07-09T06:30:07.947Z,25.08
2018-07-09T06:32:33.944Z,25.66
2018-07-09T06:34:59.916Z,26.29
2018-07-09T06:37:25.912Z,26.40
2018-07-09T06:39:51.876Z,26.64
2018-07-09T06:42:17.847Z,26.30
2018-07-09T06:44:43.882Z,26.15
2018-07-09T06:47:09.808Z,25.88
2018-07-09T06:49:35.812Z,25.82
2018-07-09T06:52:01.768Z,25.87
2018-07-09T06:54:27.729Z,25.92
2018-07-09T06:56:53.679Z,25.90
2018-07-09T06:59:19.636Z,25.87
2018-07-09T07:01:45.575Z,25.81
2018-07-09T07:04:11.568Z,25.73
2018-07-09T07:06:38.222Z,25.70
2018-07-09T07:09:04.306Z,25.99
2018-07-09T07:11:30.293Z,26.08
2018-07-09T07:13:57.412Z,26.14
2018-07-09T07:16:23.415Z,26.21
2018-07-09T07:18:49.369Z,26.52
2018-07-09T07:21:15.329Z,26.26
2018-07-09T07:23:41.314Z,26.38
2018-07-09T07:26:07.273Z,26.45
2018-07-09T07:28:33.230Z,26.68
2018-07-09T07:30:59.167Z,26.72
2018-07-09T07:33:25.145Z,26.53
2018-07-09T07:35:51.091Z,26.31
2018-07-09T07:38:17.422Z,26.66
2018-07-09T07:40:43.377Z,26.51
2018-07-09T07:43:09.376Z,26.55
2018-07-09T07:45:35.373Z,26.71
2018-07-09T07:48:01.328Z,26.76
2018-07-09T07:50:27.370Z,26.81
2018-07-09T07:52:53.292Z,26.70
2018-07-09T07:55:19.262Z,26.75
2018-07-09T07:57:45.227Z,26.78
2018-07-09T08:00:11.204Z,26.58
2018-07-09T08:02:37.162Z,26.57
2018-07-09T08:05:03.116Z,26.37
2018-07-09T08:07:29.082Z,26.43
2018-07-09T08:09:55.030Z,26.73
2018-07-09T08:14:47.089Z,26.73
2018-07-09T08:17:12.990Z,26.87
2018-07-09T08:19:38.973Z,26.83
2018-07-09T08:22:04.945Z,26.82
2018-07-09T08:24:30.897Z,26.72
2018-07-09T08:26:56.840Z,26.89
2018-07-09T08:29:22.796Z,26.89
2018-07-09T08:31:48.742Z,26.79
2018-07-09T08:34:14.752Z,26.59
2018-07-09T08:36:40.704Z,26.54
2018-07-09T08:39:06.780Z,26.52
2018-07-09T08:41:32.756Z,26.38
2018-07-09T08:43:58.696Z,26.49
2018-07-09T08:46:24.658Z,26.43
2018-07-09T08:48:50.618Z,26.38
2018-07-09T08:51:16.640Z,26.48
2018-07-09T08:53:42.601Z,26.35
2018-07-09T08:56:08.560Z,26.42
2018-07-09T08:58:34.515Z,26.29
2018-07-09T09:01:00.466Z,26.24
2018-07-09T09:03:26.412Z,26.35
2018-07-09T09:05:52.426Z,26.28
2018-07-09T09:08:18.749Z,26.23
2018-07-09T09:10:44.735Z,26.09
2018-07-09T09:13:10.690Z,26.19
2018-07-09T09:15:36.674Z,26.22
2018-07-09T09:18:02.633Z,26.05
2018-07-09T09:20:28.617Z,26.14
2018-07-09T09:22:54.584Z,26.14
2018-07-09T09:25:20.551Z,26.01
2018-07-09T09:27:46.525Z,25.95
2018-07-09T09:30:12.486Z,26.08
2018-07-09T09:32:38.432Z,25.96
2018-07-09T09:35:04.398Z,25.98
2018-07-09T09:37:30.382Z,25.91
2018-07-09T09:39:56.361Z,26.02
2018-07-09T09:42:22.317Z,26.12
2018-07-09T09:44:48.280Z,26.09
2018-07-09T09:47:14.248Z,26.14
2018-07-09T09:49:40.269Z,25.97
2018-07-09T09:52:06.224Z,25.92
2018-07-09T09:54:32.182Z,25.95
2018-07-09T09:56:58.128Z,26.01
2018-07-09T09:59:24.084Z,26.00
2018-07-09T10:01:50.044Z,25.99
2018-07-09T10:04:15.999Z,26.02
2018-07-09T10:06:41.967Z,25.98
2018-07-09T10:09:07.927Z,25.86
2018-07-09T10:11:33.882Z,25.80
2018-07-09T10:13:59.858Z,25.81
2018-07-09T10:16:25.812Z,25.88
2018-07-09T10:18:51.800Z,25.98
2018-07-09T10:21:17.792Z,25.89
2018-07-09T10:23:43.737Z,25.88
2018-07-09T10:26:09.694Z,25.94
2018-07-09T10:28:35.646Z,25.87
2018-07-09T10:31:01.668Z,25.93
2018-07-09T10:33:27.619Z,25.77
2018-07-09T10:35:53.599Z,25.78
2018-07-09T10:38:19.571Z,25.88
2018-07-09T10:40:45.632Z,25.82
2018-07-09T10:43:11.656Z,25.74
2018-07-09T10:45:37.621Z,25.83
2018-07-09T10:48:03.570Z,25.85
2018-07-09T10:50:29.551Z,25.89
2018-07-09T10:52:55.506Z,25.84
2018-07-09T10:55:21.687Z,25.86
2018-07-09T10:57:47.660Z,25.75
2018-07-09T11:00:13.610Z,25.87
2018-07-09T11:02:39.564Z,25.69
2018-07-09T11:05:05.517Z,25.77
2018-07-09T11:07:31.493Z,25.70
2018-07-09T11:09:57.504Z,25.64
2018-07-09T11:12:23.508Z,25.79
2018-07-09T11:14:49.478Z,25.80
2018-07-09T11:17:15.431Z,25.72
2018-07-09T11:19:41.394Z,25.71
2018-07-09T11:22:07.381Z,25.80
2018-07-09T11:24:33.332Z,25.80
2018-07-09T11:26:59.316Z,25.84
2018-07-09T11:29:25.263Z,25.84
2018-07-09T11:31:51.238Z,25.87
2018-07-09T11:34:17.215Z,25.91
2018-07-09T11:36:43.187Z,25.87
2018-07-09T11:39:09.133Z,25.90
2018-07-09T11:41:35.109Z,25.78
2018-07-09T11:44:01.071Z,25.63
2018-07-09T11:46:27.073Z,25.63
2018-07-09T11:48:53.046Z,25.64
2018-07-09T11:51:19.023Z,25.69
2018-07-09T11:53:44.957Z,25.68
2018-07-09T11:56:11.035Z,25.76
2018-07-09T11:58:37.045Z,25.75
2018-07-09T12:01:02.986Z,25.70
2018-07-09T12:03:28.947Z,25.72
2018-07-09T12:05:54.876Z,25.68
2018-07-09T12:08:20.908Z,25.73
2018-07-09T12:10:46.846Z,25.70
2018-07-09T12:13:12.814Z,25.70
2018-07-09T12:15:38.801Z,25.64
2018-07-09T12:18:04.756Z,25.66
2018-07-09T12:20:30.766Z,25.70
2018-07-09T12:22:57.596Z,25.76
2018-07-09T12:25:24.450Z,25.66
2018-07-09T12:27:50.576Z,25.67
2018-07-09T12:30:16.577Z,25.66
2018-07-09T12:32:42.597Z,25.75
2018-07-09T12:35:08.619Z,25.76
2018-07-09T12:37:34.665Z,25.80
2018-07-09T12:40:00.624Z,25.83
2018-07-09T12:42:26.624Z,25.76
2018-07-09T12:44:52.586Z,25.83
2018-07-09T12:47:18.584Z,25.79
2018-07-09T12:49:44.586Z,25.75
2018-07-09T12:52:10.515Z,25.52
2018-07-09T12:54:36.502Z,25.52
2018-07-09T12:57:02.453Z,25.62
2018-07-09T12:59:28.392Z,25.65
2018-07-09T13:01:54.336Z,25.71
2018-07-09T13:04:20.317Z,25.76
2018-07-09T13:06:46.264Z,25.82
2018-07-09T13:09:12.256Z,25.77
2018-07-09T13:11:38.201Z,25.78
2018-07-09T13:14:04.227Z,25.83
2018-07-09T13:16:30.173Z,25.83
2018-07-09T13:18:56.145Z,25.78
2018-07-09T13:21:22.093Z,25.70
2018-07-09T13:23:48.190Z,25.78
2018-07-09T13:26:14.173Z,25.71
2018-07-09T13:28:40.157Z,25.87
2018-07-09T13:31:06.189Z,25.92
2018-07-09T13:33:32.090Z,25.78
2018-07-09T13:35:58.492Z,25.88
2018-07-09T13:38:24.729Z,25.82
2018-07-09T13:40:50.660Z,25.78
2018-07-09T13:43:16.769Z,25.81
2018-07-09T13:45:42.751Z,25.81
2018-07-09T13:48:08.714Z,25.77
2018-07-09T13:50:34.704Z,25.77
2018-07-09T13:53:00.689Z,25.69
2018-07-09T13:55:26.703Z,25.67
2018-07-09T13:57:52.714Z,25.69
2018-07-09T14:00:18.716Z,25.78
2018-07-09T14:02:44.785Z,25.72
2018-07-09T14:05:10.833Z,25.77
2018-07-09T14:07:36.801Z,25.77
2018-07-09T14:10:02.739Z,25.33
2018-07-09T14:12:28.698Z,25.64
2018-07-09T14:14:54.666Z,25.62
2018-07-09T14:17:20.663Z,25.63
2018-07-09T14:19:46.651Z,25.63
2018-07-09T14:22:12.642Z,25.58
2018-07-09T14:24:38.583Z,25.67
2018-07-09T14:27:04.647Z,25.70
2018-07-09T14:29:30.606Z,25.74
2018-07-09T14:31:56.597Z,25.80
2018-07-09T14:34:22.543Z,25.75
2018-07-09T14:36:48.501Z,25.71
2018-07-09T14:39:14.436Z,25.62
2018-07-09T14:41:40.391Z,25.59
2018-07-09T14:44:06.345Z,25.61
2018-07-09T14:46:32.313Z,25.63
2018-07-09T14:48:58.265Z,25.55
2018-07-09T14:51:24.212Z,25.52
2018-07-09T14:53:50.183Z,25.54
2018-07-09T14:56:16.126Z,25.51
2018-07-09T14:58:42.114Z,25.56
2018-07-09T15:01:08.102Z,25.63
2018-07-09T15:03:34.121Z,25.57
2018-07-09T15:06:00.101Z,25.64
2018-07-09T15:08:26.089Z,25.64
2018-07-09T15:10:52.096Z,25.65
2018-07-09T15:13:18.094Z,25.70
2018-07-09T15:15:44.082Z,25.69
2018-07-09T15:18:10.057Z,25.75
2018-07-09T15:20:36.021Z,25.69
2018-07-09T15:23:02.082Z,25.67
2018-07-09T15:25:28.101Z,25.59
2018-07-09T15:27:54.088Z,25.67
2018-07-09T15:30:20.083Z,25.61
2018-07-09T15:32:46.048Z,25.61
2018-07-09T15:35:12.072Z,25.60
2018-07-09T15:37:39.217Z,25.60
2018-07-09T15:40:05.186Z,25.55
2018-07-09T15:42:31.241Z,25.58
2018-07-09T15:44:57.189Z,25.56
2018-07-09T15:47:23.177Z,25.50
2018-07-09T15:49:49.141Z,25.49
2018-07-09T15:52:15.109Z,25.53
2018-07-09T15:54:41.069Z,25.56
2018-07-09T15:57:07.071Z,25.62
2018-07-09T15:59:33.095Z,25.55
2018-07-09T16:01:59.055Z,25.56
2018-07-09T16:04:25.017Z,25.55
2018-07-09T16:06:50.998Z,25.60
2018-07-09T16:09:16.969Z,25.57
2018-07-09T16:11:42.915Z,25.54
2018-07-09T16:14:08.921Z,25.48
2018-07-09T16:16:34.881Z,25.53
2018-07-09T16:19:00.836Z,25.58
2018-07-09T16:21:26.822Z,25.57
2018-07-09T16:23:52.852Z,25.53
2018-07-09T16:26:18.895Z,25.58
2018-07-09T16:28:44.914Z,25.57
2018-07-09T16:31:10.816Z,25.59
2018-07-09T16:33:36.788Z,25.62
2018-07-09T16:36:08.337Z,25.62
2018-07-09T16:38:34.498Z,25.59
2018-07-09T16:41:00.720Z,25.57
2018-07-09T16:43:26.838Z,25.58
2018-07-09T16:45:54.632Z,25.52
2018-07-09T16:48:20.725Z,25.64
2018-07-09T16:50:46.839Z,25.55
2018-07-09T16:53:12.905Z,25.60
2018-07-09T16:55:38.961Z,25.51
2018-07-09T16:58:05.216Z,25.50
2018-07-09T17:00:31.486Z,25.50
2018-07-09T17:02:57.516Z,25.62
2018-07-09T17:05:23.651Z,25.59
2018-07-09T17:07:49.667Z,25.58
2018-07-09T18:29:44.392Z,25.29
2018-07-09T18:37:16.351Z,25.19
2018-07-09T19:27:34.080Z,24.30
2018-07-09T19:30:04.375Z,24.08
2018-07-09T20:23:30.729Z,22.97
2018-07-09T20:25:57.604Z,22.91
2018-07-09T20:33:33.690Z,22.70
2018-07-09T20:36:06.022Z,22.46
2018-07-09T20:38:37.966Z,22.55
2018-07-09T21:57:23.347Z,21.72
2018-07-09T23:17:39.404Z,21.98
2018-07-09T23:20:05.404Z,22.15
2018-07-09T23:35:21.510Z,22.36
2018-07-09T23:37:47.567Z,22.30
2018-07-09T23:40:13.554Z,22.00
2018-07-09T23:47:43.564Z,22.09
2018-07-09T23:50:09.735Z,22.32
2018-07-09T23:52:35.796Z,22.26
2018-07-09T23:55:01.775Z,22.28
2018-07-09T23:57:27.838Z,22.06
